.
WxDataArchive / Data Records for 2007-07-24
2007-07-23 July 2007 2007-07-25

Data Records for Tuesday, 24 July 2007

Time	Temp	Chill	HIndex	Humid	Dewpt	 Wind 	HiWind	WindDir	Rain 	Barom 
-----	----	-----	------	-----	-----	------	------	-------	-----	----- 
00:00	65.0	65.0	65.0	79	58.3	0	0	---	0.00	29.999 
00:05	64.8	64.8	64.8	78	57.8	0	0	---	0.00	30.000 
00:10	64.7	64.7	64.7	79	58.0	0	0	---	0.00	30.001 
00:15	64.5	64.5	64.5	79	57.8	0	0	---	0.00	30.002 
00:20	64.5	64.5	64.5	80	58.2	0	0	---	0.00	30.004 
00:25	64.5	64.5	64.5	80	58.2	0	0	---	0.00	30.004 
00:30	64.5	64.5	64.5	81	58.5	0	0	---	0.00	30.002 
00:35	64.5	64.5	64.5	81	58.5	0	0	---	0.00	29.997 
00:40	64.5	64.5	64.5	80	58.2	0	0	---	0.00	29.994 
00:45	64.3	64.3	64.3	80	58.0	0	0	---	0.00	29.994 
00:50	64.2	64.2	64.2	80	57.9	0	0	---	0.00	29.994 
00:55	64.0	64.0	64.0	80	57.7	0	0	---	0.00	29.994 
01:00	63.7	63.7	63.7	81	57.8	0	0	---	0.00	29.994 
01:05	63.5	63.5	63.5	81	57.6	0	0	---	0.00	29.995 
01:10	63.2	63.2	63.2	82	57.6	0	0	---	0.00	29.995 
01:15	63.1	63.1	63.1	83	57.8	0	0	---	0.00	29.993 
01:20	62.7	62.7	62.7	83	57.5	0	0	---	0.00	29.994 
01:25	62.6	62.6	62.6	83	57.4	0	0	---	0.00	29.992 
01:30	62.4	62.4	62.4	84	57.5	0	0	---	0.00	29.994 
01:35	62.4	62.4	62.4	85	57.8	0	0	---	0.00	29.998 
01:40	62.4	62.4	62.4	86	58.2	0	0	---	0.00	30.001 
01:45	62.6	62.6	62.6	86	58.3	0	0	---	0.00	29.998 
01:50	62.7	62.7	62.7	86	58.4	0	0	---	0.00	29.999 
01:55	62.9	62.9	62.9	85	58.3	0	0	---	0.00	29.999 
02:00	62.9	62.9	62.9	84	58.0	0	0	---	0.00	30.000 
02:05	62.9	62.9	62.9	84	58.0	0	0	---	0.00	30.001 
02:10	62.9	62.9	62.9	84	58.0	0	0	---	0.00	30.004 
02:15	63.1	63.1	63.1	84	58.2	0	0	---	0.00	30.002 
02:20	63.2	63.2	63.2	84	58.3	0	0	---	0.00	30.000 
02:25	63.2	63.2	63.2	83	57.9	0	0	---	0.00	29.996 
02:30	63.2	63.2	63.2	82	57.6	0	0	---	0.00	29.994 
02:35	63.4	63.4	63.4	81	57.5	0	0	---	0.00	29.993 
02:40	63.4	63.4	63.4	81	57.5	0	0	---	0.00	29.992 
02:45	63.4	63.4	63.4	81	57.5	0	0	---	0.00	29.993 
02:50	63.2	63.2	63.2	81	57.3	0	0	---	0.00	29.992 
02:55	63.1	63.1	63.1	82	57.5	0	0	---	0.00	29.993 
03:00	63.1	63.1	63.1	82	57.5	0	0	---	0.00	29.992 
03:05	62.9	62.9	62.9	83	57.7	0	0	---	0.00	29.994 
03:10	62.7	62.7	62.7	84	57.8	0	0	---	0.00	29.999 
03:15	62.6	62.6	62.6	84	57.7	0	0	---	0.00	29.995 
03:20	62.6	62.6	62.6	84	57.7	0	0	---	0.00	29.993 
03:25	62.4	62.4	62.4	84	57.5	0	0	---	0.00	29.994 
03:30	62.4	62.4	62.4	85	57.8	0	0	---	0.00	29.992 
03:35	62.6	62.6	62.6	85	58.0	0	0	---	0.00	29.990 
03:40	62.4	62.4	62.4	85	57.8	0	0	---	0.00	29.991 
03:45	62.4	62.4	62.4	86	58.2	0	0	---	0.00	29.990 
03:50	62.3	62.3	62.3	86	58.1	0	0	---	0.00	29.991 
03:55	62.1	62.1	62.1	86	57.9	0	0	---	0.00	29.991 
04:00	62.1	62.1	62.1	86	57.9	0	0	---	0.00	29.990 
04:05	62.0	62.0	62.0	87	58.1	0	0	---	0.00	29.993 
04:10	62.0	62.0	62.0	87	58.1	0	0	---	0.00	29.995 
04:15	61.8	61.8	61.8	87	57.9	0	0	---	0.00	29.996 
04:20	61.8	61.8	61.8	88	58.2	0	0	---	0.00	29.995 
04:25	61.8	61.8	61.8	88	58.2	0	0	---	0.00	29.994 
04:30	61.6	61.6	61.6	88	58.0	0	0	---	0.00	29.994 
04:35	61.8	61.8	61.8	88	58.2	0	0	---	0.00	29.992 
04:40	62.0	62.0	62.0	87	58.1	0	0	---	0.00	29.992 
04:45	62.1	62.1	62.1	86	57.9	0	0	---	0.00	29.993 
04:50	62.3	62.3	62.3	86	58.1	0	0	---	0.00	29.993 
04:55	62.4	62.4	62.4	85	57.8	0	0	---	0.00	29.993 
05:00	62.6	62.6	62.6	84	57.7	0	0	---	0.00	29.993 
05:05	62.6	62.6	62.6	84	57.7	0	0	---	0.00	29.994 
05:10	62.6	62.6	62.6	84	57.7	0	0	---	0.00	29.993 
05:15	62.6	62.6	62.6	83	57.4	0	0	---	0.00	29.992 
05:20	62.6	62.6	62.6	83	57.4	0	0	---	0.00	29.991 
05:25	62.6	62.6	62.6	83	57.4	0	0	---	0.00	29.990 
05:30	62.6	62.6	62.6	83	57.4	0	0	---	0.00	29.990 
05:35	62.6	62.6	62.6	83	57.4	0	0	---	0.00	29.988 
05:40	62.6	62.6	62.6	83	57.4	0	0	---	0.00	29.993 
05:45	62.6	62.6	62.6	84	57.7	0	0	---	0.00	29.995 
05:50	62.6	62.6	62.6	84	57.7	0	0	---	0.00	29.994 
05:55	62.6	62.6	62.6	83	57.4	0	0	---	0.00	29.992 
06:00	62.6	62.6	62.6	84	57.7	0	0	---	0.00	29.993 
06:05	62.6	62.6	62.6	84	57.7	0	0	---	0.00	29.991 
06:10	62.6	62.6	62.6	84	57.7	0	0	---	0.00	29.992 
06:15	62.7	62.7	62.7	84	57.8	0	0	---	0.00	29.998 
06:20	62.7	62.7	62.7	84	57.8	0	0	---	0.00	30.001 
06:25	62.7	62.7	62.7	84	57.8	0	0	---	0.00	30.004 
06:30	62.7	62.7	62.7	84	57.8	0	0	---	0.00	30.002 
06:35	62.9	62.9	62.9	83	57.7	0	1	90	0.00	30.007 
06:40	63.2	63.2	63.2	82	57.6	0	1	90	0.00	30.009 
06:45	63.5	63.5	63.5	81	57.6	0	1	90	0.00	30.011 
06:50	63.7	63.7	63.7	80	57.4	2	5	90	0.00	30.014 
06:55	63.9	63.9	63.9	79	57.3	1	3	68	0.00	30.016 
07:00	64.0	64.0	64.0	79	57.4	1	3	112	0.00	30.016 
07:05	64.0	64.0	64.0	78	57.0	0	2	112	0.00	30.018 
07:10	64.2	64.2	64.2	78	57.2	0	1	112	0.00	30.023 
07:15	64.3	64.3	64.3	78	57.3	0	0	---	0.00	30.019 
07:20	64.5	64.5	64.5	79	57.8	0	0	---	0.00	30.020 
07:25	64.8	64.8	64.8	79	58.1	0	0	---	0.00	30.022 
07:30	65.0	65.0	65.0	79	58.3	0	0	---	0.00	30.021 
07:35	65.3	65.3	65.3	79	58.6	0	0	---	0.00	30.023 
07:40	65.5	65.5	65.5	77	58.1	0	1	112	0.00	30.022 
07:45	65.8	65.8	65.8	77	58.4	0	1	112	0.00	30.022 
07:50	66.1	66.1	66.1	75	57.9	0	1	112	0.00	30.023 
07:55	66.4	66.4	66.4	73	57.5	0	1	112	0.00	30.023 
08:00	66.9	66.9	66.9	73	58.0	0	2	112	0.00	30.023 
08:05	67.1	67.1	67.1	72	57.8	1	3	112	0.00	30.024 
08:10	67.4	67.4	67.4	71	57.7	0	2	112	0.00	30.025 
08:15	67.8	67.8	67.8	70	57.6	1	3	112	0.00	30.025 
08:20	68.6	68.6	68.6	70	58.4	1	3	112	0.00	30.025 
08:25	69.6	69.6	69.6	68	58.6	1	2	112	0.00	30.025 
08:30	70.8	70.8	70.8	68	59.7	1	3	112	0.00	30.026 
08:35	71.1	71.1	71.1	65	58.7	2	4	112	0.00	30.026 
08:40	71.1	71.1	71.1	68	60.0	2	4	112	0.00	30.025 
08:45	71.8	71.8	71.8	66	59.8	1	3	112	0.00	30.025 
08:50	72.8	72.8	72.8	63	59.5	1	5	112	0.00	30.023 
08:55	73.9	73.9	73.9	58	58.2	1	3	90	0.00	30.022 
09:00	74.7	74.7	74.7	58	58.9	1	4	90	0.00	30.019 
09:05	75.3	75.3	77.6	58	59.5	1	3	90	0.00	30.017 
09:10	75.6	75.6	77.8	55	58.3	1	2	90	0.00	30.017 
09:15	76.0	76.0	78.1	57	59.6	1	4	90	0.00	30.018 
09:20	76.1	76.1	78.1	53	57.7	1	4	90	0.00	30.016 
09:25	76.8	76.8	78.5	51	57.3	1	3	90	0.00	30.014 
09:30	77.2	77.2	78.7	50	57.1	2	5	90	0.00	30.014 
09:35	77.0	77.0	78.7	52	58.0	1	3	90	0.00	30.015 
09:40	76.5	76.5	78.4	53	58.1	1	3	90	0.00	30.019 
09:45	75.4	75.4	77.7	58	59.6	2	4	90	0.00	30.022 
09:50	74.4	74.4	74.4	58	58.6	2	4	90	0.00	30.021 
09:55	73.7	73.7	73.7	61	59.4	2	5	90	0.00	30.023 
10:00	73.7	73.7	73.7	59	58.5	1	3	90	0.00	30.022 
10:05	73.7	73.7	73.7	57	57.5	2	4	90	0.00	30.022 
10:10	73.9	73.9	73.9	58	58.2	1	2	90	0.00	30.023 
10:15	74.0	74.0	74.0	60	59.2	1	4	68	0.00	30.023 
10:20	74.0	74.0	74.0	57	57.8	2	4	90	0.00	30.023 
10:25	74.0	74.0	74.0	57	57.8	1	4	90	0.00	30.023 
10:30	74.0	74.0	74.0	57	57.8	1	3	90	0.00	30.024 
10:35	74.7	74.7	74.7	60	59.9	1	3	90	0.00	30.021 
10:40	75.3	75.3	77.7	55	58.0	1	3	90	0.00	30.021 
10:45	75.6	75.6	77.8	55	58.3	1	3	90	0.00	30.021 
10:50	75.8	75.8	78.0	55	58.5	0	2	90	0.00	30.023 
10:55	75.8	75.8	78.0	52	56.9	1	5	90	0.00	30.022 
11:00	75.6	75.6	77.9	54	57.8	2	4	90	0.00	30.022 
11:05	75.6	75.6	77.9	50	55.6	2	4	90	0.00	30.021 
11:10	75.8	75.8	78.0	52	56.9	1	2	90	0.00	30.023 
11:15	75.8	75.8	78.0	50	55.8	2	5	90	0.00	30.024 
11:20	75.8	75.8	78.0	54	57.9	1	5	90	0.00	30.021 
11:25	75.8	75.8	78.0	52	56.9	1	3	68	0.00	30.022 
11:30	75.8	75.8	78.0	52	56.9	1	4	90	0.00	30.022 
11:35	76.0	76.0	78.1	53	57.6	1	4	90	0.00	30.022 
11:40	76.5	76.5	78.4	54	58.6	1	3	90	0.00	30.023 
11:45	77.0	77.0	78.6	50	56.9	3	5	90	0.00	30.022 
11:50	76.8	76.8	78.5	50	56.7	2	5	90	0.00	30.022 
11:55	77.0	77.0	78.5	48	55.8	2	5	90	0.00	30.021 
12:00	77.7	77.7	79.1	51	58.1	1	5	112	0.00	30.018 
12:05	78.3	78.3	79.2	45	55.2	1	3	68	0.00	30.021 
12:10	78.8	78.8	79.4	44	55.0	1	5	68	0.00	30.021 
12:15	78.5	78.5	79.2	44	54.7	3	5	90	0.00	30.021 
12:20	78.3	78.3	79.1	43	53.9	2	5	90	0.00	30.019 
12:25	78.6	78.6	79.3	44	54.8	1	4	90	0.00	30.017 
12:30	79.2	79.2	79.7	44	55.4	1	6	90	0.00	30.016 
12:35	79.4	79.4	79.9	45	56.2	2	6	90	0.00	30.017 
12:40	79.6	79.6	79.9	43	55.1	2	5	90	0.00	30.013 
12:45	79.6	79.6	79.7	40	53.1	1	4	112	0.00	30.012 
12:50	79.9	79.9	80.0	42	54.7	1	6	90	0.00	30.012 
12:55	80.5	80.5	80.4	41	54.6	1	4	90	0.00	30.009 
13:00	80.9	80.9	80.3	37	52.2	1	5	90	0.00	30.007 
13:05	80.7	80.7	80.2	37	52.0	1	3	90	0.00	30.005 
13:10	81.1	81.1	80.6	39	53.8	1	4	112	0.00	30.005 
13:15	81.2	81.2	80.5	37	52.4	1	4	112	0.00	30.004 
13:20	80.9	80.9	80.3	37	52.2	2	4	90	0.00	30.002 
13:25	80.9	80.9	80.4	38	52.9	2	4	90	0.00	30.000 
13:30	81.2	81.2	80.1	32	48.5	1	4	112	0.00	29.995 
13:35	81.4	81.4	80.5	35	51.1	2	7	112	0.00	29.994 
13:40	81.2	81.2	80.4	36	51.7	2	4	135	0.00	29.995 
13:45	80.9	80.9	80.1	34	49.9	2	5	90	0.00	29.994 
13:50	80.7	80.7	80.2	37	52.0	2	4	112	0.00	29.993 
13:55	80.7	80.7	80.2	38	52.7	1	4	90	0.00	29.993 
14:00	81.1	81.1	80.3	35	50.8	1	4	90	0.00	29.992 
14:05	81.1	81.1	80.7	40	54.5	2	5	90	0.00	29.990 
14:10	81.2	81.2	80.3	35	50.9	1	5	112	0.00	29.991 
14:15	81.2	81.2	80.4	36	51.7	1	6	90	0.00	29.991 
14:20	81.6	81.6	80.9	38	53.5	1	3	112	0.00	29.991 
14:25	82.0	82.0	81.0	36	52.4	2	4	90	0.00	29.991 
14:30	82.0	82.0	81.2	38	53.9	1	4	90	0.00	29.990 
14:35	82.2	82.2	81.6	40	55.4	1	5	112	0.00	29.988 
14:40	82.2	82.2	81.3	37	53.3	2	5	90	0.00	29.987 
14:45	82.2	82.2	81.7	41	56.1	0	2	135	0.00	29.984 
14:50	82.6	82.6	81.6	37	53.7	1	4	68	0.00	29.981 
14:55	82.6	82.6	81.5	36	52.9	2	4	112	0.00	29.977 
15:00	82.4	82.4	81.1	34	51.2	2	6	90	0.00	29.976 
15:05	82.0	82.0	81.3	39	54.6	0	2	90	0.00	29.977 
15:10	81.6	81.6	80.6	35	51.3	1	4	90	0.00	29.976 
15:15	81.8	81.8	80.9	36	52.2	1	3	112	0.00	29.975 
15:20	81.8	81.8	81.0	37	53.0	1	3	112	0.00	29.972 
15:25	81.8	81.8	81.0	37	53.0	2	4	135	0.00	29.972 
15:30	82.2	82.2	81.0	34	51.0	1	3	112	0.00	29.972 
15:35	82.2	82.2	81.3	37	53.3	2	4	112	0.00	29.970 
15:40	81.8	81.8	80.8	35	51.4	2	4	90	0.00	29.969 
15:45	81.8	81.8	81.1	38	53.7	2	6	90	0.00	29.969 
15:50	81.8	81.8	81.1	38	53.7	1	3	90	0.00	29.966 
15:55	81.6	81.6	80.6	35	51.3	1	2	90	0.00	29.965 
16:00	81.1	81.1	80.4	37	52.3	1	3	90	0.00	29.966 
16:05	81.1	81.1	80.7	40	54.5	0	1	90	0.00	29.961 
16:10	80.9	80.9	80.4	38	52.9	1	2	90	0.00	29.961 
16:15	80.5	80.5	80.1	38	52.5	0	2	90	0.00	29.960 
16:20	80.7	80.7	80.6	42	55.4	0	2	90	0.00	29.960 
16:25	81.1	81.1	80.8	41	55.1	1	4	112	0.00	29.959 
16:30	81.4	81.4	81.1	41	55.4	1	3	135	0.00	29.958 
16:35	81.6	81.6	81.0	39	54.2	1	4	135	0.00	29.959 
16:40	81.6	81.6	81.0	39	54.2	1	4	90	0.00	29.957 
16:45	81.6	81.6	81.1	40	54.9	1	4	90	0.00	29.956 
16:50	81.4	81.4	81.1	41	55.4	2	5	112	0.00	29.956 
16:55	80.9	80.9	80.9	43	56.3	2	4	112	0.00	29.953 
17:00	80.5	80.5	80.7	45	57.2	2	5	90	0.00	29.951 
17:05	80.3	80.3	80.3	42	55.1	1	3	135	0.00	29.951 
17:10	80.1	80.1	80.3	43	55.6	1	3	90	0.00	29.950 
17:15	80.1	80.1	80.3	43	55.6	1	3	90	0.00	29.947 
17:20	80.1	80.1	80.3	43	55.6	1	3	90	0.00	29.945 
17:25	79.9	79.9	80.3	45	56.6	1	2	90	0.00	29.946 
17:30	79.9	79.9	80.2	44	56.0	1	3	112	0.00	29.946 
17:35	79.6	79.6	80.0	44	55.7	0	2	112	0.00	29.945 
17:40	79.4	79.4	79.8	43	54.9	1	5	90	0.00	29.945 
17:45	79.4	79.4	80.0	46	56.8	0	2	90	0.00	29.945 
17:50	79.2	79.2	79.8	46	56.6	1	2	90	0.00	29.946 
17:55	79.0	79.0	79.7	46	56.4	1	4	90	0.00	29.947 
18:00	79.0	79.0	79.6	45	55.8	0	2	90	0.00	29.947 
18:05	78.8	78.8	79.4	44	55.0	0	3	90	0.00	29.948 
18:10	78.8	78.8	79.5	45	55.6	1	3	90	0.00	29.947 
18:15	78.8	78.8	79.6	47	56.8	1	4	135	0.00	29.948 
18:20	78.6	78.6	79.4	46	56.1	1	3	90	0.00	29.950 
18:25	78.5	78.5	79.4	47	56.6	1	5	112	0.00	29.950 
18:30	78.1	78.1	79.2	48	56.8	1	2	112	0.00	29.953 
18:35	77.7	77.7	79.0	49	57.0	1	3	135	0.00	29.955 
18:40	77.4	77.4	78.8	50	57.3	0	2	112	0.00	29.957 
18:45	77.2	77.2	78.7	50	57.1	1	2	135	0.00	29.958 
18:50	77.0	77.0	78.6	51	57.5	0	2	135	0.00	29.959 
18:55	76.7	76.7	78.4	51	57.2	1	2	135	0.00	29.959 
19:00	76.5	76.5	78.3	50	56.5	0	1	135	0.00	29.960 
19:05	76.5	76.5	78.3	51	57.0	0	1	135	0.00	29.956 
19:10	76.3	76.3	78.2	53	57.9	0	1	135	0.00	29.958 
19:15	76.0	76.0	78.1	53	57.6	0	3	135	0.00	29.960 
19:20	75.8	75.8	78.0	54	57.9	0	1	112	0.00	29.960 
19:25	75.4	75.4	77.7	55	58.1	0	2	112	0.00	29.961 
19:30	75.1	75.1	77.6	56	58.3	0	2	112	0.00	29.961 
19:35	74.7	74.7	74.7	57	58.4	0	1	112	0.00	29.961 
19:40	74.6	74.6	74.6	57	58.3	0	1	112	0.00	29.962 
19:45	74.4	74.4	74.4	58	58.6	0	1	112	0.00	29.964 
19:50	74.2	74.2	74.2	58	58.5	0	2	112	0.00	29.965 
19:55	74.0	74.0	74.0	58	58.3	0	0	---	0.00	29.966 
20:00	73.7	73.7	73.7	58	58.0	0	1	112	0.00	29.968 
20:05	73.5	73.5	73.5	60	58.7	0	1	112	0.00	29.963 
20:10	73.2	73.2	73.2	60	58.5	0	1	112	0.00	29.963 
20:15	73.0	73.0	73.0	61	58.7	0	1	112	0.00	29.966 
20:20	72.8	72.8	72.8	61	58.6	0	1	112	0.00	29.968 
20:25	72.7	72.7	72.7	61	58.5	0	1	112	0.00	29.967 
20:30	72.7	72.7	72.7	61	58.5	0	1	112	0.00	29.969 
20:35	72.7	72.7	72.7	60	58.0	0	1	112	0.00	29.971 
20:40	72.5	72.5	72.5	60	57.8	0	1	112	0.00	29.971 
20:45	72.5	72.5	72.5	62	58.7	0	0	---	0.00	29.972 
20:50	72.3	72.3	72.3	61	58.1	0	1	112	0.00	29.974 
20:55	72.1	72.1	72.1	60	57.4	0	1	112	0.00	29.974 
21:00	72.1	72.1	72.1	60	57.4	0	1	112	0.00	29.974 
21:05	72.1	72.1	72.1	61	57.9	0	1	112	0.00	29.975 
21:10	71.8	71.8	71.8	61	57.6	0	0	---	0.00	29.977 
21:15	71.6	71.6	71.6	60	57.0	0	0	---	0.00	29.977 
21:20	71.6	71.6	71.6	61	57.4	0	0	---	0.00	29.977 
21:25	71.5	71.5	71.5	61	57.3	0	0	---	0.00	29.975 
21:30	71.3	71.3	71.3	60	56.7	0	0	---	0.00	29.974 
21:35	71.3	71.3	71.3	60	56.7	0	0	---	0.00	29.977 
21:40	71.1	71.1	71.1	61	57.0	0	0	---	0.00	29.978 
21:45	70.9	70.9	70.9	61	56.8	0	0	---	0.00	29.982 
21:50	70.6	70.6	70.6	61	56.5	0	0	---	0.00	29.979 
21:55	70.4	70.4	70.4	61	56.3	0	0	---	0.00	29.979 
22:00	70.1	70.1	70.1	62	56.5	0	0	---	0.00	29.980 
22:05	69.6	69.6	69.6	63	56.4	0	0	---	0.00	29.982 
22:10	69.3	69.3	69.3	63	56.2	0	0	---	0.00	29.985 
22:15	68.9	68.9	68.9	65	56.6	0	0	---	0.00	29.986 
22:20	68.6	68.6	68.6	66	56.8	0	0	---	0.00	29.984 
22:25	68.4	68.4	68.4	67	57.0	0	0	---	0.00	29.988 
22:30	67.9	67.9	67.9	69	57.3	0	0	---	0.00	29.989 
22:35	67.6	67.6	67.6	68	56.7	0	0	---	0.00	29.990 
22:40	67.3	67.3	67.3	69	56.8	0	0	---	0.00	29.993 
22:45	66.9	66.9	66.9	69	56.4	0	0	---	0.00	29.995 
22:50	66.8	66.8	66.8	70	56.7	0	0	---	0.00	29.999 
22:55	66.4	66.4	66.4	71	56.7	0	0	---	0.00	30.002 
23:00	66.4	66.4	66.4	72	57.1	0	0	---	0.00	30.004 
23:05	66.3	66.3	66.3	74	57.8	0	0	---	0.00	30.006 
23:10	66.3	66.3	66.3	76	58.5	0	0	---	0.00	30.006 
23:15	66.4	66.4	66.4	75	58.2	0	0	---	0.00	30.006 
23:20	66.4	66.4	66.4	74	57.9	0	0	---	0.00	30.006 
23:25	66.4	66.4	66.4	74	57.9	0	0	---	0.00	30.005 
23:30	66.3	66.3	66.3	75	58.1	0	0	---	0.00	30.003 
23:35	66.3	66.3	66.3	75	58.1	0	0	---	0.00	29.999 
23:40	66.3	66.3	66.3	75	58.1	0	0	---	0.00	29.998 
23:45	66.3	66.3	66.3	75	58.1	0	1	112	0.00	30.003 
23:50	66.1	66.1	66.1	74	57.6	0	1	112	0.00	30.003 
23:55	66.1	66.1	66.1	74	57.6	0	0	---	0.00	30.003 

CoCoRaHS
IN-AL-39
A2 Web Hosting
Creative Commons License
GoDaddy
Look for:

loaded 2017-12-13 02:41:51 • last modified 2010-11-18 10:43:29
Privacy PolicyDisclaimer
• wx.awcolley.com is powered by PmWiki v.2002016 •
• all content (unless otherwise noted) © 2017 A W Colley